createdAt,value
2022-10-08T00:00:53.379Z,101761.88
2022-10-08T00:03:21.605Z,101759.28
2022-10-08T00:06:05.721Z,101761.84
2022-10-08T00:08:35.225Z,101757.41
2022-10-08T00:11:05.478Z,101774.81
2022-10-08T00:13:33.225Z,101779.13
2022-10-08T00:15:59.672Z,101780.00
2022-10-08T00:18:26.146Z,101772.16
2022-10-08T00:20:52.622Z,101780.81
2022-10-08T00:23:19.027Z,101788.59
2022-10-08T00:25:45.453Z,101793.75
2022-10-08T00:28:12.943Z,101793.75
2022-10-08T00:30:40.826Z,101794.59
2022-10-08T00:33:08.690Z,101804.13
2022-10-08T00:35:39.397Z,101805.75
2022-10-08T00:38:07.231Z,101804.88
2022-10-08T00:40:45.713Z,101815.25
2022-10-08T00:43:15.341Z,101816.97
2022-10-08T00:45:45.193Z,101817.78
2022-10-08T00:48:21.551Z,101822.97
2022-10-08T00:50:48.011Z,101821.19
2022-10-08T00:53:14.707Z,101822.06
2022-10-08T00:55:43.540Z,101826.38
2022-10-08T00:58:21.324Z,101815.03
2022-10-08T01:00:48.653Z,101828.06
2022-10-08T01:03:15.609Z,101815.91
2022-10-08T01:06:07.431Z,101807.06
2022-10-08T01:08:42.425Z,101810.59
2022-10-08T01:11:33.472Z,101809.66
2022-10-08T01:14:16.057Z,101818.31
2022-10-08T01:17:11.032Z,101809.50
2022-10-08T01:19:56.223Z,101824.28
2022-10-08T01:22:41.440Z,101822.53
2022-10-08T01:25:44.943Z,101816.38
2022-10-08T01:28:22.385Z,101825.03
2022-10-08T01:30:56.703Z,101824.97
2022-10-08T01:33:29.330Z,101824.06
2022-10-08T01:35:59.257Z,101823.19
2022-10-08T01:38:29.272Z,101809.19
2022-10-08T01:40:58.436Z,101835.22
2022-10-08T01:43:28.862Z,101833.50
2022-10-08T01:45:59.855Z,101810.88
2022-10-08T01:48:31.639Z,101831.69
2022-10-08T01:51:20.953Z,101849.81
2022-10-08T01:53:51.604Z,101828.88
2022-10-08T01:56:23.223Z,101824.47
2022-10-08T01:58:55.579Z,101849.69
2022-10-08T02:01:50.437Z,101861.72
2022-10-08T02:04:19.243Z,101846.19
2022-10-08T02:06:50.633Z,101844.34
2022-10-08T02:09:17.952Z,101852.13
2022-10-08T02:11:44.391Z,101848.59
2022-10-08T02:14:10.879Z,101852.91
2022-10-08T02:16:43.009Z,101837.22
2022-10-08T02:19:28.354Z,101835.47
2022-10-08T02:21:56.796Z,101858.09
2022-10-08T02:24:30.381Z,101858.03
2022-10-08T02:27:02.444Z,101841.44
2022-10-08T02:29:36.992Z,101852.75
2022-10-08T02:32:21.716Z,101843.94
2022-10-08T02:34:55.491Z,101820.50
2022-10-08T02:37:27.575Z,101851.81
2022-10-08T02:40:00.105Z,101845.59
2022-10-08T02:42:29.435Z,101868.16
2022-10-08T02:45:00.223Z,101869.91
2022-10-08T02:47:30.644Z,101880.22
2022-10-08T02:50:01.147Z,101862.78
2022-10-08T02:52:31.269Z,101881.88
2022-10-08T02:54:59.682Z,101883.50
2022-10-08T02:57:34.152Z,101868.66
2022-10-08T03:00:00.822Z,101893.06
2022-10-08T03:02:37.197Z,101872.94
2022-10-08T03:05:08.880Z,101865.09
2022-10-08T03:07:35.271Z,101887.72
2022-10-08T03:10:07.158Z,101885.03
2022-10-08T03:12:34.399Z,101888.47
2022-10-08T03:15:01.208Z,101889.31
2022-10-08T03:17:38.147Z,101893.53
2022-10-08T03:20:06.685Z,101885.72
2022-10-08T03:22:33.644Z,101902.19
2022-10-08T03:25:00.238Z,101907.38
2022-10-08T03:27:26.684Z,101914.28
2022-10-08T03:29:53.165Z,101915.13
2022-10-08T03:32:19.596Z,101920.31
2022-10-08T03:34:46.064Z,101924.63
2022-10-08T03:37:12.444Z,101937.53
2022-10-08T03:39:38.914Z,101934.06
2022-10-08T03:42:05.366Z,101929.72
2022-10-08T03:44:31.812Z,101928.84
2022-10-08T03:46:58.276Z,101934.91
2022-10-08T03:49:24.729Z,101933.16
2022-10-08T03:51:51.118Z,101933.13
2022-10-08T03:54:17.578Z,101935.69
2022-10-08T03:56:44.055Z,101942.59
2022-10-08T03:59:10.536Z,101950.31
2022-10-08T04:01:37.108Z,101952.88
2022-10-08T04:04:03.778Z,101959.72
2022-10-08T04:06:30.459Z,101958.88
2022-10-08T04:08:56.942Z,101970.09
2022-10-08T04:11:23.374Z,101970.94
2022-10-08T04:13:49.775Z,101976.91
2022-10-08T04:16:18.228Z,101970.66
2022-10-08T04:18:46.098Z,101985.47
2022-10-08T04:21:14.900Z,101981.13
2022-10-08T04:23:42.668Z,101974.16
2022-10-08T04:26:10.984Z,101979.25
2022-10-08T04:28:39.432Z,101977.50
2022-10-08T04:31:09.891Z,101962.53
2022-10-08T04:33:36.409Z,101987.75
2022-10-08T04:36:15.109Z,101992.00
2022-10-08T04:38:43.175Z,101995.38
2022-10-08T04:41:12.524Z,101998.78
2022-10-08T04:43:40.616Z,102009.13
2022-10-08T04:46:12.656Z,102011.56
2022-10-08T04:48:40.088Z,102014.19
2022-10-08T04:51:10.599Z,102027.03
2022-10-08T04:53:38.229Z,102028.72
2022-10-08T04:56:19.824Z,102039.00
2022-10-08T04:58:46.580Z,102033.78
2022-10-08T05:01:15.148Z,102032.03
2022-10-08T05:03:44.633Z,102030.28
2022-10-08T05:06:11.307Z,102026.75
2022-10-08T05:08:38.091Z,102027.63
2022-10-08T05:11:04.813Z,102037.91
2022-10-08T05:13:31.277Z,102036.09
2022-10-08T05:16:03.525Z,102021.13
2022-10-08T05:18:31.404Z,102050.69
2022-10-08T05:21:02.345Z,102043.75
2022-10-08T05:23:28.813Z,102051.53
2022-10-08T05:25:55.222Z,102054.94
2022-10-08T05:28:21.816Z,102060.06
2022-10-08T05:30:48.308Z,102061.78
2022-10-08T05:33:14.759Z,102067.75
2022-10-08T05:35:41.218Z,102066.91
2022-10-08T05:38:07.704Z,102068.56
2022-10-08T05:40:34.138Z,102070.31
2022-10-08T05:43:00.555Z,102071.94
2022-10-08T05:45:26.956Z,102071.06
2022-10-08T05:47:53.451Z,102074.44
2022-10-08T05:50:19.871Z,102075.28
2022-10-08T05:52:46.456Z,102082.13
2022-10-08T05:55:13.071Z,102089.03
2022-10-08T05:57:39.512Z,102096.78
2022-10-08T06:00:06.515Z,102105.38
2022-10-08T06:02:37.939Z,102101.88
2022-10-08T06:05:04.758Z,102106.16
2022-10-08T06:07:31.335Z,102108.72
2022-10-08T06:09:57.833Z,102103.56
2022-10-08T06:12:24.257Z,102110.47
2022-10-08T06:14:50.673Z,102113.91
2022-10-08T06:17:17.076Z,102115.56
2022-10-08T06:19:43.506Z,102112.09
2022-10-08T06:22:09.909Z,102122.44
2022-10-08T06:24:36.365Z,102129.34
2022-10-08T06:27:02.756Z,102125.91
2022-10-08T06:29:29.278Z,102125.81
2022-10-08T06:31:55.757Z,102135.38
2022-10-08T06:34:22.247Z,102137.13
2022-10-08T06:36:48.687Z,102139.78
2022-10-08T06:39:15.892Z,102138.91
2022-10-08T06:41:42.627Z,102154.53
2022-10-08T06:44:11.500Z,102147.59
2022-10-08T06:46:38.049Z,102151.94
2022-10-08T06:49:05.014Z,102160.63
2022-10-08T06:51:31.964Z,102164.09
2022-10-08T06:54:04.388Z,102174.53
2022-10-08T06:56:34.253Z,102164.22
2022-10-08T06:59:00.666Z,102176.41
2022-10-08T07:01:32.542Z,102173.00
2022-10-08T07:03:59.545Z,102178.22
2022-10-08T07:06:26.927Z,102177.44
2022-10-08T07:08:55.204Z,102183.59
2022-10-08T07:11:22.662Z,102181.91
2022-10-08T07:13:49.429Z,102191.50
2022-10-08T07:16:21.700Z,102195.91
2022-10-08T07:18:50.299Z,102199.50
2022-10-08T07:21:18.382Z,102202.22
2022-10-08T07:23:45.123Z,102211.81
2022-10-08T07:26:17.514Z,102214.53
2022-10-08T07:28:49.436Z,102222.47
2022-10-08T07:31:18.887Z,102210.44
2022-10-08T07:33:45.330Z,102231.44
2022-10-08T07:36:17.567Z,102231.59
2022-10-08T07:38:44.396Z,102224.84
2022-10-08T07:41:12.730Z,102233.72
2022-10-08T07:43:39.953Z,102229.56
2022-10-08T07:46:07.065Z,102226.22
2022-10-08T07:48:34.344Z,102241.19
2022-10-08T07:51:17.772Z,102222.03
2022-10-08T07:53:45.068Z,102254.53
2022-10-08T07:56:16.080Z,102235.50
2022-10-08T07:58:42.929Z,102245.38
2022-10-08T08:01:15.482Z,102234.97
2022-10-08T08:03:42.462Z,102259.59
2022-10-08T08:06:16.397Z,102270.19
2022-10-08T08:08:44.788Z,102271.22
2022-10-08T08:11:13.833Z,102256.56
2022-10-08T08:13:41.475Z,102274.19
2022-10-08T08:16:14.443Z,102272.59
2022-10-08T08:18:44.098Z,102257.84
2022-10-08T08:21:16.132Z,102280.78
2022-10-08T08:23:45.170Z,102283.50
2022-10-08T08:26:23.119Z,102275.84
2022-10-08T08:28:54.261Z,102278.66
2022-10-08T08:31:23.919Z,102287.53
2022-10-08T08:33:53.140Z,102271.97
2022-10-08T08:36:20.928Z,102294.84
2022-10-08T08:38:47.414Z,102292.38
2022-10-08T08:41:32.646Z,102279.41
2022-10-08T08:44:00.918Z,102305.75
2022-10-08T08:46:31.185Z,102298.81
2022-10-08T08:49:02.394Z,102316.50
2022-10-08T08:51:28.989Z,102323.69
2022-10-08T08:53:55.438Z,102323.97
2022-10-08T08:56:24.025Z,102328.50
2022-10-08T08:59:03.875Z,102313.00
2022-10-08T09:01:41.990Z,102320.97
2022-10-08T09:04:32.742Z,102336.00
2022-10-08T09:07:00.655Z,102338.78
2022-10-08T09:09:42.556Z,102341.53
2022-10-08T09:12:33.179Z,102339.91
2022-10-08T09:15:01.673Z,102325.16
2022-10-08T09:17:32.315Z,102341.78
2022-10-08T09:19:58.873Z,102342.69
2022-10-08T09:22:32.096Z,102343.63
2022-10-08T09:25:12.727Z,102337.53
2022-10-08T09:27:44.526Z,102335.84
2022-10-08T09:30:43.248Z,102346.31
2022-10-08T09:33:12.546Z,102344.56
2022-10-08T09:35:49.113Z,102346.31
2022-10-08T09:38:23.483Z,102345.41
2022-10-08T09:41:19.020Z,102348.03
2022-10-08T09:44:10.614Z,102355.00
2022-10-08T09:46:37.198Z,102360.22
2022-10-08T09:49:32.759Z,102351.47
2022-10-08T09:52:06.979Z,102361.94
2022-10-08T09:54:44.121Z,102349.69
2022-10-08T09:57:15.763Z,102350.56
2022-10-08T09:59:53.017Z,102339.19
2022-10-08T10:02:29.997Z,102350.47
2022-10-08T10:04:57.288Z,102361.75
2022-10-08T10:07:24.641Z,102358.22
2022-10-08T10:09:56.324Z,102362.59
2022-10-08T10:12:36.494Z,102359.09
2022-10-08T10:15:12.194Z,102346.84
2022-10-08T10:17:44.059Z,102345.13
2022-10-08T10:20:22.094Z,102361.75
2022-10-08T10:22:54.923Z,102338.22
2022-10-08T10:25:37.264Z,102360.03
2022-10-08T10:28:12.358Z,102359.16
2022-10-08T10:30:50.893Z,102354.81
2022-10-08T10:33:22.694Z,102360.09
2022-10-08T10:35:58.426Z,102357.50
2022-10-08T10:38:29.668Z,102358.41
2022-10-08T10:41:09.742Z,102357.53
2022-10-08T10:43:50.627Z,102360.16
2022-10-08T10:46:25.644Z,102368.91
2022-10-08T10:48:52.228Z,102370.63
2022-10-08T10:51:30.849Z,102363.66
2022-10-08T10:54:15.693Z,102367.19
2022-10-08T10:56:51.579Z,102365.44
2022-10-08T10:59:44.992Z,102361.97
2022-10-08T11:02:30.831Z,102357.63
2022-10-08T11:05:15.643Z,102361.97
2022-10-08T11:08:00.231Z,102361.97
2022-10-08T11:10:45.405Z,102353.25
2022-10-08T11:13:28.493Z,102354.16
2022-10-08T11:16:04.042Z,102360.25
2022-10-08T11:18:57.195Z,102360.25
2022-10-08T11:21:44.831Z,102359.38
2022-10-08T11:24:19.732Z,102344.56
2022-10-08T11:26:58.809Z,102364.63
2022-10-08T11:29:40.482Z,102360.25
2022-10-08T11:32:15.098Z,102362.88
2022-10-08T11:35:26.584Z,102362.00
2022-10-08T11:38:16.063Z,102349.78
2022-10-08T11:40:56.180Z,102344.56
2022-10-08T11:43:53.188Z,102362.84
2022-10-08T11:46:21.552Z,102353.28
2022-10-08T11:48:49.492Z,102358.50
2022-10-08T11:51:18.975Z,102365.47
2022-10-08T11:54:09.694Z,102360.25
2022-10-08T11:56:38.483Z,102361.09
2022-10-08T11:59:23.228Z,102364.56
2022-10-08T12:01:52.832Z,102341.03
2022-10-08T12:04:22.731Z,102375.94
2022-10-08T12:07:02.400Z,102364.56
2022-10-08T12:10:02.341Z,102368.91
2022-10-08T12:12:50.870Z,102372.38
2022-10-08T12:15:23.443Z,102377.59
2022-10-08T12:18:25.841Z,102374.13
2022-10-08T12:21:17.869Z,102369.72
2022-10-08T12:23:45.095Z,102374.00
2022-10-08T12:26:15.958Z,102370.41
2022-10-08T12:28:42.473Z,102365.03
2022-10-08T12:31:30.935Z,102366.69
2022-10-08T12:34:00.336Z,102372.72
2022-10-08T12:36:30.754Z,102351.69
2022-10-08T12:39:16.514Z,102363.00
2022-10-08T12:42:03.636Z,102378.66
2022-10-08T12:44:48.416Z,102376.03
2022-10-08T12:47:45.874Z,102379.59
2022-10-08T12:50:34.011Z,102380.53
2022-10-08T12:53:02.432Z,102382.34
2022-10-08T12:55:37.871Z,102361.47
2022-10-08T12:58:04.947Z,102371.91
2022-10-08T13:00:34.605Z,102364.13
2022-10-08T13:03:13.269Z,102372.81
2022-10-08T13:05:41.646Z,102365.00
2022-10-08T13:08:38.602Z,102364.13
2022-10-08T13:11:10.781Z,102353.63
2022-10-08T13:13:42.241Z,102366.63
2022-10-08T13:16:10.884Z,102360.50
2022-10-08T13:18:39.285Z,102341.25
2022-10-08T13:21:25.801Z,102362.13
2022-10-08T13:23:52.663Z,102360.34
2022-10-08T13:26:38.864Z,102369.97
2022-10-08T13:29:20.936Z,102370.00
2022-10-08T13:32:05.593Z,102359.53
2022-10-08T13:34:40.510Z,102354.22
2022-10-08T13:37:14.172Z,102361.22
2022-10-08T13:39:43.186Z,102338.53
2022-10-08T13:42:14.719Z,102340.28
2022-10-08T13:44:42.075Z,102368.16
2022-10-08T13:47:17.200Z,102357.66
2022-10-08T13:49:44.177Z,102361.19
2022-10-08T13:52:15.963Z,102349.94
2022-10-08T13:54:44.513Z,102356.94
2022-10-08T13:57:11.453Z,102362.13
2022-10-08T13:59:38.066Z,102366.53
2022-10-08T14:02:05.404Z,102368.28
2022-10-08T14:04:33.239Z,102366.56
2022-10-08T14:07:03.577Z,102366.47
2022-10-08T14:09:30.672Z,102361.22
2022-10-08T14:11:59.022Z,102358.53
2022-10-08T14:14:27.175Z,102345.31
2022-10-08T14:16:54.215Z,102364.34
2022-10-08T14:19:20.727Z,102359.78
2022-10-08T14:21:52.906Z,102364.00
2022-10-08T14:24:19.345Z,102361.41
2022-10-08T14:26:45.777Z,102360.59
2022-10-08T14:29:12.264Z,102354.44
2022-10-08T14:31:38.792Z,102349.13
2022-10-08T14:34:05.415Z,102349.84
2022-10-08T14:36:39.482Z,102356.78
2022-10-08T14:39:06.069Z,102351.53
2022-10-08T14:41:33.224Z,102365.59
2022-10-08T14:43:59.879Z,102362.19
2022-10-08T14:46:26.396Z,102360.56
2022-10-08T14:48:52.870Z,102354.53
2022-10-08T14:51:19.555Z,102360.78
2022-10-08T14:53:46.045Z,102360.00
2022-10-08T14:56:13.150Z,102361.84
2022-10-08T14:58:39.852Z,102362.81
2022-10-08T15:01:06.604Z,102350.63
2022-10-08T15:03:33.170Z,102350.63
2022-10-08T15:06:00.923Z,102355.88
2022-10-08T15:08:28.098Z,102355.88
2022-10-08T15:10:54.540Z,102352.38
2022-10-08T15:13:21.034Z,102354.13
2022-10-08T15:15:47.461Z,102354.13
2022-10-08T15:18:13.941Z,102355.03
2022-10-08T15:20:40.794Z,102354.13
2022-10-08T15:23:07.774Z,102347.16
2022-10-08T15:25:34.196Z,102350.63
2022-10-08T15:28:00.662Z,102348.88
2022-10-08T15:30:27.275Z,102364.63
2022-10-08T15:32:53.747Z,102355.94
2022-10-08T15:35:20.168Z,102359.47
2022-10-08T15:37:46.899Z,102356.97
2022-10-08T15:40:13.730Z,102365.78
2022-10-08T15:42:40.209Z,102357.06
2022-10-08T15:45:07.040Z,102356.25
2022-10-08T15:47:33.481Z,102358.03
2022-10-08T15:49:59.898Z,102354.59
2022-10-08T15:52:26.391Z,102352.91
2022-10-08T15:54:52.835Z,102352.03
2022-10-08T15:57:19.513Z,102351.19
2022-10-08T15:59:46.004Z,102346.84
2022-10-08T16:02:17.212Z,102349.50
2022-10-08T16:04:46.691Z,102347.75
2022-10-08T16:07:13.147Z,102343.44
2022-10-08T16:09:39.566Z,102348.66
2022-10-08T16:12:06.049Z,102353.06
2022-10-08T16:14:32.626Z,102353.06
2022-10-08T16:16:59.192Z,102349.56
2022-10-08T16:19:27.397Z,102337.38
2022-10-08T16:21:56.573Z,102357.44
2022-10-08T16:24:23.738Z,102353.09
2022-10-08T16:26:50.570Z,102348.72
2022-10-08T16:29:18.179Z,102357.47
2022-10-08T16:31:45.752Z,102350.47
2022-10-08T16:34:19.674Z,102353.97
2022-10-08T16:36:46.543Z,102354.84
2022-10-08T16:39:14.734Z,102346.16
2022-10-08T16:41:41.592Z,102344.44
2022-10-08T16:44:13.229Z,102348.81
2022-10-08T16:46:42.996Z,102356.66
2022-10-08T16:49:15.676Z,102354.91
2022-10-08T16:51:45.712Z,102354.94
2022-10-08T16:54:14.194Z,102358.44
2022-10-08T16:56:42.254Z,102354.09
2022-10-08T16:59:11.653Z,102357.56
2022-10-08T17:01:41.707Z,102355.84
2022-10-08T17:04:09.484Z,102353.25
2022-10-08T17:06:36.197Z,102362.84
2022-10-08T17:09:03.483Z,102362.88
2022-10-08T17:11:29.968Z,102357.63
2022-10-08T17:13:58.011Z,102362.88
2022-10-08T17:16:26.679Z,102367.25
2022-10-08T17:18:54.958Z,102355.00
2022-10-08T17:21:21.816Z,102369.00
2022-10-08T17:23:48.735Z,102374.19
2022-10-08T17:26:20.984Z,102375.94
2022-10-08T17:28:49.620Z,102362.78
2022-10-08T17:31:20.141Z,102354.94
2022-10-08T17:33:47.397Z,102370.59
2022-10-08T17:36:22.417Z,102363.63
2022-10-08T17:38:51.308Z,102380.16
2022-10-08T17:41:20.628Z,102373.16
2022-10-08T17:43:47.983Z,102382.72
2022-10-08T17:46:17.085Z,102387.91
2022-10-08T17:48:44.047Z,102374.81
2022-10-08T17:51:13.094Z,102359.03
2022-10-08T17:53:39.663Z,102374.66
2022-10-08T17:56:08.758Z,102393.75
2022-10-08T17:58:35.378Z,102384.09
2022-10-08T18:01:02.907Z,102394.44
2022-10-08T18:03:29.407Z,102397.88
2022-10-08T18:05:57.922Z,102376.84
2022-10-08T18:08:24.877Z,102401.19
2022-10-08T18:10:51.644Z,102398.50
2022-10-08T18:13:18.186Z,102401.00
2022-10-08T18:15:44.707Z,102404.38
2022-10-08T18:18:11.281Z,102419.97
2022-10-08T18:20:37.980Z,102416.41
2022-10-08T18:23:04.440Z,102402.41
2022-10-08T18:25:30.845Z,102412.78
2022-10-08T18:27:57.297Z,102413.56
2022-10-08T18:30:23.723Z,102414.28
2022-10-08T18:32:50.450Z,102419.44
2022-10-08T18:35:17.249Z,102420.19
2022-10-08T18:37:43.663Z,102418.38
2022-10-08T18:40:10.183Z,102414.81
2022-10-08T18:42:36.602Z,102420.78
2022-10-08T18:45:03.243Z,102419.88
2022-10-08T18:47:29.689Z,102417.19
2022-10-08T18:49:56.076Z,102422.31
2022-10-08T18:52:22.536Z,102420.53
2022-10-08T18:54:48.940Z,102419.59
2022-10-08T18:57:15.370Z,102422.16
2022-10-08T18:59:41.780Z,102426.47
2022-10-08T19:02:09.981Z,102419.47
2022-10-08T19:04:36.742Z,102418.59
2022-10-08T19:07:03.221Z,102419.47
2022-10-08T19:09:29.742Z,102420.31
2022-10-08T19:11:56.148Z,102416.81
2022-10-08T19:14:23.322Z,102427.19
2022-10-08T19:16:50.226Z,102428.88
2022-10-08T19:19:22.297Z,102413.91
2022-10-08T19:21:49.850Z,102428.81
2022-10-08T19:24:19.907Z,102406.91
2022-10-08T19:26:46.859Z,102431.31
2022-10-08T19:29:15.544Z,102422.56
2022-10-08T19:31:42.546Z,102424.28
2022-10-08T19:34:12.400Z,102434.66
2022-10-08T19:36:38.888Z,102426.81
2022-10-08T19:39:11.751Z,102418.88
2022-10-08T19:41:40.454Z,102443.28
2022-10-08T19:44:06.945Z,102434.59
2022-10-08T19:46:33.787Z,102436.28
2022-10-08T19:49:02.354Z,102426.66
2022-10-08T19:51:30.590Z,102429.22
2022-10-08T19:54:00.822Z,102427.38
2022-10-08T19:56:28.006Z,102440.44
2022-10-08T19:58:55.021Z,102432.59
2022-10-08T20:01:33.350Z,102416.91
2022-10-08T20:04:01.432Z,102427.41
2022-10-08T20:06:30.437Z,102429.13
2022-10-08T20:09:00.053Z,102407.28
2022-10-08T20:11:27.310Z,102428.19
2022-10-08T20:13:54.336Z,102427.22
2022-10-08T20:16:29.707Z,102407.06
2022-10-08T20:19:05.373Z,102413.03
2022-10-08T20:21:35.139Z,102420.94
2022-10-08T20:24:02.256Z,102426.06
2022-10-08T20:26:35.121Z,102414.50
2022-10-08T20:29:28.691Z,102434.44
2022-10-08T20:31:57.206Z,102432.63
2022-10-08T20:34:26.692Z,102441.19
2022-10-08T20:36:53.540Z,102446.31
2022-10-08T20:39:21.734Z,102418.22
2022-10-08T20:41:48.730Z,102430.50
2022-10-08T20:44:15.815Z,102432.97
2022-10-08T20:46:42.402Z,102433.69
2022-10-08T20:49:11.473Z,102437.88
2022-10-08T20:51:39.913Z,102429.94
2022-10-08T20:54:08.401Z,102435.06
2022-10-08T20:56:39.733Z,102427.97
2022-10-08T20:59:13.691Z,102442.63
2022-10-08T21:01:40.223Z,102447.72
2022-10-08T21:04:07.319Z,102444.16
2022-10-08T21:06:45.486Z,102420.53
2022-10-08T21:09:13.010Z,102432.84
2022-10-08T21:11:40.228Z,102423.31
2022-10-08T21:14:07.982Z,102431.06
2022-10-08T21:16:37.497Z,102418.72
2022-10-08T21:19:16.967Z,102397.75
2022-10-08T21:21:43.758Z,102422.16
2022-10-08T21:24:11.006Z,102422.84
2022-10-08T21:26:40.072Z,102404.41
2022-10-08T21:29:09.724Z,102435.69
2022-10-08T21:31:38.348Z,102438.19
2022-10-08T21:34:05.294Z,102444.09
2022-10-08T21:36:37.695Z,102436.13
2022-10-08T21:39:06.430Z,102428.25
2022-10-08T21:41:34.647Z,102442.09
2022-10-08T21:44:03.250Z,102420.09
2022-10-08T21:46:32.624Z,102431.53
2022-10-08T21:49:01.750Z,102436.63
2022-10-08T21:51:29.609Z,102432.22
2022-10-08T21:53:58.556Z,102440.78
2022-10-08T21:56:27.190Z,102432.81
2022-10-08T21:58:55.508Z,102437.06
2022-10-08T22:01:24.975Z,102436.91
2022-10-08T22:04:09.330Z,102435.94
2022-10-08T22:06:38.560Z,102413.13
2022-10-08T22:09:07.861Z,102431.47
2022-10-08T22:11:34.544Z,102434.78
2022-10-08T22:14:00.963Z,102432.97
2022-10-08T22:16:27.497Z,102425.97
2022-10-08T22:18:53.907Z,102424.16
2022-10-08T22:21:22.384Z,102414.56
2022-10-08T22:23:50.114Z,102398.69
2022-10-08T22:26:20.247Z,102395.22
2022-10-08T22:28:47.427Z,102420.50
2022-10-08T22:31:15.403Z,102415.28
2022-10-08T22:33:41.970Z,102412.66
2022-10-08T22:36:11.912Z,102404.03
2022-10-08T22:38:41.210Z,102405.81
2022-10-08T22:41:19.987Z,102393.53
2022-10-08T22:43:46.882Z,102398.88
2022-10-08T22:46:16.277Z,102375.22
2022-10-08T22:48:43.214Z,102390.19
2022-10-08T22:51:16.038Z,102393.63
2022-10-08T22:53:42.959Z,102396.16
2022-10-08T22:56:17.007Z,102375.06
2022-10-08T22:58:44.433Z,102386.53
2022-10-08T23:01:13.984Z,102359.38
2022-10-08T23:03:41.039Z,102386.41
2022-10-08T23:06:13.901Z,102381.00
2022-10-08T23:08:40.950Z,102379.25
2022-10-08T23:11:07.832Z,102376.59
2022-10-08T23:13:34.681Z,102359.19
2022-10-08T23:16:09.754Z,102354.56
2022-10-08T23:18:41.877Z,102366.78
2022-10-08T23:21:16.357Z,102365.81
2022-10-08T23:23:44.654Z,102370.03
2022-10-08T23:26:11.867Z,102359.56
2022-10-08T23:28:39.213Z,102362.06
2022-10-08T23:31:13.223Z,102355.88
2022-10-08T23:33:41.457Z,102354.97
2022-10-08T23:36:09.932Z,102333.94
2022-10-08T23:38:37.045Z,102350.38
2022-10-08T23:41:05.662Z,102332.78
2022-10-08T23:43:37.900Z,102350.38
2022-10-08T23:46:06.427Z,102352.97
2022-10-08T23:48:33.600Z,102344.31
2022-10-08T23:51:00.422Z,102344.31
2022-10-08T23:53:26.884Z,102341.66
2022-10-08T23:55:53.939Z,102339.03
2022-10-08T23:58:20.733Z,102335.56
